createdAt,value
2022-11-29T00:00:45.956Z,31.10
2022-11-29T00:01:46.012Z,30.30
2022-11-29T00:02:46.078Z,30.20
2022-11-29T00:03:45.974Z,27.70
2022-11-29T00:04:46.155Z,30.00
2022-11-29T00:05:45.912Z,27.00
2022-11-29T00:06:45.881Z,28.60
2022-11-29T00:07:45.884Z,27.00
2022-11-29T00:08:45.860Z,28.90
2022-11-29T00:09:45.860Z,29.30
2022-11-29T00:10:45.839Z,28.70
2022-11-29T00:11:45.869Z,28.80
2022-11-29T00:12:45.815Z,29.50
2022-11-29T00:13:45.807Z,30.60
2022-11-29T00:14:46.220Z,27.50
2022-11-29T00:15:45.781Z,30.50
2022-11-29T00:16:45.876Z,30.50
2022-11-29T00:17:45.761Z,27.50
2022-11-29T00:18:45.751Z,27.80
2022-11-29T00:19:45.765Z,30.30
2022-11-29T00:20:45.750Z,27.30
2022-11-29T00:21:45.717Z,29.00
2022-11-29T00:22:45.710Z,27.90
2022-11-29T00:23:45.706Z,29.50
2022-11-29T00:24:46.015Z,26.50
2022-11-29T00:25:45.673Z,27.10
2022-11-29T00:26:45.677Z,27.20
2022-11-29T00:27:45.651Z,28.00
2022-11-29T00:28:45.704Z,29.10
2022-11-29T00:29:45.629Z,26.80
2022-11-29T00:30:45.717Z,27.70
2022-11-29T00:31:45.607Z,26.40
2022-11-29T00:32:45.597Z,29.30
2022-11-29T00:33:45.604Z,30.30
2022-11-29T00:34:45.883Z,30.90
2022-11-29T00:35:45.563Z,29.20
2022-11-29T00:36:45.578Z,28.30
2022-11-29T00:37:45.542Z,29.10
2022-11-29T00:38:45.544Z,29.00
2022-11-29T00:39:45.524Z,27.60
2022-11-29T00:40:45.554Z,27.80
2022-11-29T00:41:45.498Z,27.60
2022-11-29T00:42:45.489Z,28.00
2022-11-29T00:43:45.493Z,28.20
2022-11-29T00:44:52.476Z,28.90
2022-11-29T00:45:45.473Z,29.60
2022-11-29T00:46:45.460Z,28.60
2022-11-29T00:47:45.444Z,29.30
2022-11-29T00:48:45.425Z,29.20
2022-11-29T00:49:45.411Z,30.70
2022-11-29T00:50:45.403Z,31.00
2022-11-29T00:51:45.408Z,29.10
2022-11-29T00:52:45.407Z,28.90
2022-11-29T00:53:45.372Z,29.60
2022-11-29T00:54:45.859Z,29.20
2022-11-29T00:55:45.397Z,28.20
2022-11-29T00:56:45.353Z,26.80
2022-11-29T00:57:45.344Z,29.50
2022-11-29T00:58:45.316Z,29.30
2022-11-29T00:59:45.306Z,29.40
2022-11-29T01:00:45.295Z,28.80
2022-11-29T01:01:45.311Z,28.30
2022-11-29T01:02:45.385Z,29.60
2022-11-29T01:03:45.260Z,28.90
2022-11-29T01:04:45.449Z,31.90
2022-11-29T01:05:45.236Z,30.40
2022-11-29T01:06:45.249Z,30.00
2022-11-29T01:07:45.232Z,27.10
2022-11-29T01:08:45.233Z,30.60
2022-11-29T01:09:45.193Z,30.10
2022-11-29T01:10:45.250Z,28.00
2022-11-29T01:11:45.186Z,27.50
2022-11-29T01:12:45.166Z,34.30
2022-11-29T01:13:45.149Z,28.80
2022-11-29T01:14:45.535Z,27.30
2022-11-29T01:15:45.132Z,26.70
2022-11-29T01:16:45.159Z,29.30
2022-11-29T01:17:45.135Z,28.40
2022-11-29T01:18:45.150Z,30.60
2022-11-29T01:19:50.466Z,28.40
2022-11-29T01:20:46.079Z,27.30
2022-11-29T01:21:45.066Z,26.70
2022-11-29T01:22:45.072Z,26.60
2022-11-29T01:23:45.046Z,29.00
2022-11-29T01:24:45.295Z,25.90
2022-11-29T01:25:45.038Z,27.90
2022-11-29T01:26:45.028Z,27.60
2022-11-29T01:27:45.022Z,26.00
2022-11-29T01:28:45.803Z,26.20
2022-11-29T01:29:44.976Z,27.30
2022-11-29T01:30:45.010Z,27.60
2022-11-29T01:31:44.954Z,28.10
2022-11-29T01:32:44.948Z,28.60
2022-11-29T01:33:44.952Z,28.60
2022-11-29T01:34:45.271Z,27.60
2022-11-29T01:35:44.927Z,28.90
2022-11-29T01:36:44.906Z,28.20
2022-11-29T01:37:44.939Z,29.40
2022-11-29T01:38:44.883Z,28.00
2022-11-29T01:39:44.884Z,29.30
2022-11-29T01:40:44.880Z,29.80
2022-11-29T01:41:44.847Z,29.20
2022-11-29T01:42:44.840Z,28.40
2022-11-29T01:43:44.858Z,28.30
2022-11-29T01:44:45.210Z,29.20
2022-11-29T01:45:44.840Z,27.40
2022-11-29T01:46:44.797Z,28.50
2022-11-29T01:47:44.785Z,26.70
2022-11-29T01:48:44.772Z,27.10
2022-11-29T01:49:44.777Z,28.30
2022-11-29T01:50:44.748Z,26.00
2022-11-29T01:51:44.747Z,28.20
2022-11-29T01:52:44.732Z,26.50
2022-11-29T01:53:44.722Z,27.00
2022-11-29T01:54:45.068Z,28.70
2022-11-29T01:55:44.806Z,26.70
2022-11-29T01:56:44.712Z,29.80
2022-11-29T01:57:44.676Z,28.30
2022-11-29T01:58:44.666Z,26.30
2022-11-29T01:59:44.673Z,28.00
2022-11-29T02:00:44.657Z,33.40
2022-11-29T02:01:44.663Z,28.30
2022-11-29T02:02:44.652Z,33.30
2022-11-29T02:03:44.609Z,31.30
2022-11-29T02:04:44.980Z,27.10
2022-11-29T02:05:44.587Z,28.90
2022-11-29T02:06:44.609Z,26.30
2022-11-29T02:07:44.641Z,28.00
2022-11-29T02:08:44.558Z,28.00
2022-11-29T02:09:44.558Z,28.20
2022-11-29T02:10:44.574Z,26.90
2022-11-29T02:11:44.525Z,26.50
2022-11-29T02:12:44.533Z,27.70
2022-11-29T02:13:44.506Z,27.40
2022-11-29T02:14:44.901Z,25.50
2022-11-29T02:15:44.632Z,27.10
2022-11-29T02:16:44.474Z,27.80
2022-11-29T02:17:44.498Z,28.60
2022-11-29T02:18:44.453Z,25.60
2022-11-29T02:19:44.448Z,31.30
2022-11-29T02:20:44.422Z,27.90
2022-11-29T02:21:44.416Z,27.60
2022-11-29T02:22:44.399Z,27.70
2022-11-29T02:23:44.409Z,27.10
2022-11-29T02:24:44.688Z,29.10
2022-11-29T02:25:44.384Z,27.00
2022-11-29T02:26:44.373Z,26.80
2022-11-29T02:27:44.348Z,27.00
2022-11-29T02:28:44.371Z,25.80
2022-11-29T02:29:44.331Z,27.70
2022-11-29T02:30:44.461Z,25.60
2022-11-29T02:31:44.326Z,26.20
2022-11-29T02:32:44.291Z,26.60
2022-11-29T02:33:44.308Z,27.10
2022-11-29T02:34:44.706Z,27.70
2022-11-29T02:35:44.261Z,26.20
2022-11-29T02:36:44.248Z,26.90
2022-11-29T02:37:44.254Z,26.50
2022-11-29T02:38:44.225Z,25.80
2022-11-29T02:39:44.220Z,26.20
2022-11-29T02:40:44.203Z,27.60
2022-11-29T02:41:44.196Z,28.10
2022-11-29T02:42:44.252Z,25.60
2022-11-29T02:43:44.177Z,24.90
2022-11-29T02:44:44.537Z,26.30
2022-11-29T02:45:51.790Z,25.50
2022-11-29T02:46:44.141Z,24.60
2022-11-29T02:47:44.134Z,27.20
2022-11-29T02:48:44.117Z,26.10
2022-11-29T02:49:44.120Z,26.60
2022-11-29T02:50:44.096Z,29.20
2022-11-29T02:51:44.087Z,31.20
2022-11-29T02:52:44.088Z,32.10
2022-11-29T02:53:44.117Z,28.80
2022-11-29T02:54:44.467Z,30.10
2022-11-29T02:55:44.044Z,27.80
2022-11-29T02:56:44.031Z,28.90
2022-11-29T02:57:44.417Z,30.60
2022-11-29T02:58:44.008Z,27.80
2022-11-29T02:59:44.001Z,33.80
2022-11-29T03:00:44.013Z,27.30
2022-11-29T03:01:44.047Z,30.20
2022-11-29T03:02:44.032Z,30.50
2022-11-29T03:03:43.956Z,30.80
2022-11-29T03:04:44.326Z,27.30
2022-11-29T03:05:43.950Z,28.20
2022-11-29T03:06:43.924Z,26.60
2022-11-29T03:07:43.949Z,28.10
2022-11-29T03:08:43.925Z,27.10
2022-11-29T03:09:43.902Z,25.20
2022-11-29T03:10:43.894Z,28.20
2022-11-29T03:11:43.885Z,27.50
2022-11-29T03:12:43.859Z,28.50
2022-11-29T03:13:43.871Z,27.80
2022-11-29T03:14:44.120Z,27.80
2022-11-29T03:15:43.886Z,25.20
2022-11-29T03:16:43.866Z,27.10
2022-11-29T03:17:43.807Z,30.40
2022-11-29T03:18:43.790Z,26.90
2022-11-29T03:19:43.781Z,25.10
2022-11-29T03:20:43.767Z,24.70
2022-11-29T03:21:43.776Z,24.10
2022-11-29T03:22:43.746Z,27.30
2022-11-29T03:23:43.771Z,25.10
2022-11-29T03:24:43.970Z,25.50
2022-11-29T03:25:43.716Z,27.60
2022-11-29T03:26:43.716Z,25.80
2022-11-29T03:27:43.697Z,23.30
2022-11-29T03:28:43.681Z,26.00
2022-11-29T03:29:43.674Z,24.10
2022-11-29T03:30:43.706Z,24.00
2022-11-29T03:31:43.664Z,23.50
2022-11-29T03:32:43.670Z,25.30
2022-11-29T03:33:43.647Z,24.50
2022-11-29T03:34:44.021Z,23.60
2022-11-29T03:35:43.628Z,24.10
2022-11-29T03:36:43.593Z,24.40
2022-11-29T03:37:43.621Z,26.30
2022-11-29T03:38:43.573Z,23.80
2022-11-29T03:39:43.580Z,24.10
2022-11-29T03:40:43.565Z,24.30
2022-11-29T03:41:43.545Z,25.30
2022-11-29T03:42:43.534Z,24.00
2022-11-29T03:43:43.535Z,24.90
2022-11-29T03:44:43.871Z,26.90
2022-11-29T03:45:43.497Z,24.00
2022-11-29T03:46:43.523Z,25.50
2022-11-29T03:47:43.481Z,25.00
2022-11-29T03:48:43.496Z,25.10
2022-11-29T03:49:43.486Z,26.60
2022-11-29T03:50:43.456Z,26.10
2022-11-29T03:51:43.450Z,22.90
2022-11-29T03:52:43.421Z,25.00
2022-11-29T03:53:43.412Z,23.40
2022-11-29T03:54:43.685Z,26.40
2022-11-29T03:55:43.427Z,27.30
2022-11-29T03:56:43.400Z,26.30
2022-11-29T03:57:43.370Z,27.50
2022-11-29T03:58:43.357Z,26.50
2022-11-29T03:59:43.363Z,28.40
2022-11-29T04:00:43.388Z,24.30
2022-11-29T04:01:43.381Z,24.60
2022-11-29T04:02:43.374Z,25.10
2022-11-29T04:03:43.302Z,25.00
2022-11-29T04:04:43.520Z,23.40
2022-11-29T04:05:43.294Z,23.10
2022-11-29T04:06:43.268Z,24.20
2022-11-29T04:07:43.323Z,24.70
2022-11-29T04:08:43.248Z,24.10
2022-11-29T04:09:43.248Z,24.80
2022-11-29T04:10:43.238Z,23.30
2022-11-29T04:11:43.215Z,21.90
2022-11-29T04:12:43.201Z,23.10
2022-11-29T04:13:43.192Z,21.20
2022-11-29T04:14:43.620Z,21.70
2022-11-29T04:15:43.230Z,20.90
2022-11-29T04:16:43.179Z,22.00
2022-11-29T04:17:43.152Z,23.00
2022-11-29T04:18:43.207Z,23.50
2022-11-29T04:19:43.128Z,23.40
2022-11-29T04:20:47.951Z,23.70
2022-11-29T04:21:44.132Z,21.90
2022-11-29T04:22:43.111Z,23.40
2022-11-29T04:23:43.089Z,22.00
2022-11-29T04:24:43.504Z,22.70
2022-11-29T04:25:43.066Z,21.60
2022-11-29T04:26:43.064Z,22.20
2022-11-29T04:27:43.043Z,23.40
2022-11-29T04:28:43.079Z,23.50
2022-11-29T04:29:43.021Z,21.70
2022-11-29T04:30:43.007Z,22.90
2022-11-29T04:31:43.011Z,21.10
2022-11-29T04:32:43.037Z,24.10
2022-11-29T04:33:42.978Z,23.40
2022-11-29T04:34:43.404Z,25.90
2022-11-29T04:35:42.954Z,25.10
2022-11-29T04:36:42.976Z,25.80
2022-11-29T04:37:42.950Z,24.00
2022-11-29T04:38:42.919Z,23.30
2022-11-29T04:39:42.917Z,23.20
2022-11-29T04:40:42.895Z,23.20
2022-11-29T04:41:42.900Z,22.00
2022-11-29T04:42:42.888Z,22.90
2022-11-29T04:43:42.884Z,23.60
2022-11-29T04:44:43.161Z,23.40
2022-11-29T04:45:42.880Z,24.50
2022-11-29T04:46:50.346Z,23.20
2022-11-29T04:47:42.822Z,24.30
2022-11-29T04:48:42.808Z,24.40
2022-11-29T04:49:42.811Z,24.10
2022-11-29T04:50:42.786Z,24.40
2022-11-29T04:51:42.779Z,23.00
2022-11-29T04:52:42.789Z,25.70
2022-11-29T04:53:42.771Z,24.20
2022-11-29T04:54:43.020Z,24.20
2022-11-29T04:55:42.735Z,23.90
2022-11-29T04:56:42.743Z,24.30
2022-11-29T04:57:42.728Z,24.60
2022-11-29T04:58:42.703Z,24.50
2022-11-29T04:59:42.704Z,24.90
2022-11-29T05:00:42.677Z,22.90
2022-11-29T05:01:42.728Z,23.00
2022-11-29T05:02:42.693Z,22.80
2022-11-29T05:03:42.663Z,23.30
2022-11-29T05:04:42.841Z,23.40
2022-11-29T05:05:42.627Z,23.00
2022-11-29T05:06:42.614Z,22.30
2022-11-29T05:07:42.657Z,22.00
2022-11-29T05:08:42.629Z,22.10
2022-11-29T05:09:42.583Z,23.20
2022-11-29T05:10:42.613Z,21.90
2022-11-29T05:11:42.569Z,23.80
2022-11-29T05:12:42.565Z,22.90
2022-11-29T05:13:42.541Z,22.00
2022-11-29T05:14:42.850Z,21.20
2022-11-29T05:15:42.561Z,23.30
2022-11-29T05:16:42.518Z,21.50
2022-11-29T05:17:42.501Z,21.90
2022-11-29T05:18:42.529Z,22.30
2022-11-29T05:19:42.477Z,22.30
2022-11-29T05:20:42.467Z,22.40
2022-11-29T05:21:42.453Z,20.60
2022-11-29T05:22:42.455Z,21.50
2022-11-29T05:23:42.430Z,20.30
2022-11-29T05:24:42.690Z,21.90
2022-11-29T05:25:42.415Z,19.90
2022-11-29T05:26:42.397Z,22.10
2022-11-29T05:27:42.401Z,21.60
2022-11-29T05:28:42.371Z,21.60
2022-11-29T05:29:42.364Z,20.30
2022-11-29T05:30:42.352Z,20.80
2022-11-29T05:31:42.342Z,21.90
2022-11-29T05:32:42.455Z,20.40
2022-11-29T05:33:42.321Z,20.80
2022-11-29T05:34:42.306Z,20.60
2022-11-29T05:35:42.371Z,20.30
2022-11-29T05:36:42.285Z,20.10
2022-11-29T05:37:42.280Z,19.40
2022-11-29T05:38:42.266Z,21.20
2022-11-29T05:39:42.258Z,22.70
2022-11-29T05:40:42.275Z,22.60
2022-11-29T05:41:42.234Z,22.00
2022-11-29T05:42:42.262Z,22.20
2022-11-29T05:43:42.214Z,21.10
2022-11-29T05:44:42.269Z,21.90
2022-11-29T05:45:42.192Z,21.80
2022-11-29T05:46:42.227Z,21.50
2022-11-29T05:47:42.168Z,18.80
2022-11-29T05:48:42.170Z,19.80
2022-11-29T05:49:42.150Z,20.50
2022-11-29T05:50:42.162Z,21.00
2022-11-29T05:51:42.143Z,20.60
2022-11-29T05:52:42.110Z,20.70
2022-11-29T05:53:42.105Z,20.20
2022-11-29T05:54:42.358Z,21.70
2022-11-29T05:55:42.125Z,21.40
2022-11-29T05:56:42.092Z,21.00
2022-11-29T05:57:42.057Z,20.60
2022-11-29T05:58:42.106Z,21.00
2022-11-29T05:59:42.038Z,21.10
2022-11-29T06:00:42.029Z,20.80
2022-11-29T06:01:42.051Z,22.10
2022-11-29T06:02:42.044Z,20.70
2022-11-29T06:03:41.992Z,21.20
2022-11-29T06:04:42.148Z,21.20
2022-11-29T06:05:41.971Z,21.40
2022-11-29T06:06:41.963Z,21.30
2022-11-29T06:07:41.989Z,21.40
2022-11-29T06:08:41.938Z,20.70
2022-11-29T06:09:41.952Z,21.20
2022-11-29T06:10:41.920Z,20.90
2022-11-29T06:11:41.903Z,20.80
2022-11-29T06:12:41.920Z,21.00
2022-11-29T06:13:41.883Z,20.90
2022-11-29T06:14:42.281Z,19.80
2022-11-29T06:15:41.861Z,19.80
2022-11-29T06:16:41.858Z,19.60
2022-11-29T06:17:41.837Z,20.80
2022-11-29T06:18:41.830Z,20.20
2022-11-29T06:19:41.835Z,21.70
2022-11-29T06:20:41.808Z,20.30
2022-11-29T06:21:41.865Z,21.50
2022-11-29T06:22:41.788Z,20.80
2022-11-29T06:23:41.790Z,20.30
2022-11-29T06:24:41.777Z,21.90
2022-11-29T06:25:41.756Z,21.20
2022-11-29T06:26:41.748Z,20.40
2022-11-29T06:27:41.728Z,20.90
2022-11-29T06:28:41.746Z,23.10
2022-11-29T06:29:41.731Z,22.00
2022-11-29T06:30:41.720Z,20.50
2022-11-29T06:31:41.729Z,21.40
2022-11-29T06:32:41.738Z,22.50
2022-11-29T06:33:41.679Z,23.40
2022-11-29T06:34:41.661Z,23.40
2022-11-29T06:35:41.657Z,23.60
2022-11-29T06:36:41.636Z,23.50
2022-11-29T06:37:41.623Z,24.20
2022-11-29T06:38:41.645Z,23.50
2022-11-29T06:39:41.620Z,23.40
2022-11-29T06:40:41.614Z,22.50
2022-11-29T06:41:41.581Z,23.70
2022-11-29T06:42:41.604Z,22.90
2022-11-29T06:43:41.568Z,23.80
2022-11-29T06:44:41.588Z,23.30
2022-11-29T06:45:41.539Z,24.60
2022-11-29T06:46:41.562Z,25.10
2022-11-29T06:47:49.031Z,24.40
2022-11-29T06:48:42.513Z,24.40
2022-11-29T06:49:41.499Z,23.00
2022-11-29T06:50:41.481Z,25.20
2022-11-29T06:51:41.505Z,25.10
2022-11-29T06:52:41.465Z,24.50
2022-11-29T06:53:41.447Z,22.80
2022-11-29T06:54:41.440Z,23.40
2022-11-29T06:55:41.423Z,24.70
2022-11-29T06:56:41.449Z,25.10
2022-11-29T06:57:41.417Z,23.50
2022-11-29T06:58:41.441Z,25.80
2022-11-29T06:59:41.447Z,22.80
2022-11-29T07:00:41.478Z,22.70
2022-11-29T07:01:42.028Z,23.40
2022-11-29T07:02:41.378Z,23.00
2022-11-29T07:03:41.341Z,21.60
2022-11-29T07:04:45.945Z,22.50
2022-11-29T07:05:42.330Z,21.20
2022-11-29T07:06:41.309Z,21.00
2022-11-29T07:07:41.362Z,19.70
2022-11-29T07:08:41.314Z,22.10
2022-11-29T07:09:41.277Z,21.10
2022-11-29T07:10:41.268Z,22.40
2022-11-29T07:11:41.265Z,21.30
2022-11-29T07:12:41.542Z,21.50
2022-11-29T07:13:41.283Z,21.40
2022-11-29T07:14:41.221Z,20.90
2022-11-29T07:15:41.207Z,20.60
2022-11-29T07:16:41.269Z,20.90
2022-11-29T07:17:41.191Z,20.60
2022-11-29T07:18:41.195Z,20.20
2022-11-29T07:19:41.165Z,19.60
2022-11-29T07:20:41.179Z,20.10
2022-11-29T07:21:41.174Z,19.60
2022-11-29T07:22:43.948Z,21.30
2022-11-29T07:23:41.119Z,18.90
2022-11-29T07:24:41.123Z,20.10
2022-11-29T07:25:41.111Z,21.20
2022-11-29T07:26:41.111Z,19.80
2022-11-29T07:27:41.076Z,20.70
2022-11-29T07:28:41.067Z,20.50
2022-11-29T07:29:41.059Z,19.90
2022-11-29T07:30:41.076Z,18.90
2022-11-29T07:31:41.163Z,21.10
2022-11-29T07:32:51.346Z,20.00
2022-11-29T07:33:41.010Z,21.10
2022-11-29T07:34:41.011Z,21.10
2022-11-29T07:35:41.010Z,21.90
2022-11-29T07:36:40.993Z,21.30
2022-11-29T07:37:40.981Z,21.50
2022-11-29T07:38:40.958Z,19.90
2022-11-29T07:39:41.025Z,19.70
2022-11-29T07:40:40.942Z,18.80
2022-11-29T07:41:40.941Z,19.90
2022-11-29T07:42:40.922Z,19.00
2022-11-29T07:43:40.916Z,19.10
2022-11-29T07:44:40.893Z,19.00
2022-11-29T07:45:40.881Z,20.50
2022-11-29T07:46:43.562Z,20.40
2022-11-29T07:47:41.460Z,21.00
2022-11-29T07:48:40.910Z,21.50
2022-11-29T07:49:40.851Z,20.70
2022-11-29T07:50:40.830Z,19.50
2022-11-29T07:51:41.498Z,20.00
2022-11-29T07:52:43.461Z,19.40
2022-11-29T07:53:40.825Z,19.90
2022-11-29T07:54:40.794Z,20.50
2022-11-29T07:55:40.775Z,19.90
2022-11-29T07:56:40.764Z,21.00
2022-11-29T07:57:41.043Z,20.80
2022-11-29T07:58:40.794Z,19.70
2022-11-29T08:00:02.617Z,21.30
2022-11-29T08:00:41.905Z,21.90
2022-11-29T08:01:40.793Z,20.10
2022-11-29T08:02:40.729Z,19.20
2022-11-29T08:03:40.692Z,19.80
2022-11-29T08:04:40.882Z,19.90
2022-11-29T08:05:40.698Z,20.20
2022-11-29T08:06:40.654Z,20.80
2022-11-29T08:07:40.729Z,19.60
2022-11-29T08:08:43.929Z,21.50
2022-11-29T08:09:40.634Z,21.20
2022-11-29T08:10:40.619Z,20.80
2022-11-29T08:11:40.611Z,21.00
2022-11-29T08:12:40.600Z,20.40
2022-11-29T08:13:40.583Z,20.30
2022-11-29T08:14:41.568Z,19.00
2022-11-29T08:15:40.608Z,18.20
2022-11-29T08:16:51.531Z,19.60
2022-11-29T08:17:40.543Z,21.00
2022-11-29T08:18:40.540Z,20.90
2022-11-29T08:19:40.568Z,18.40
2022-11-29T08:20:43.862Z,20.10
2022-11-29T08:21:40.629Z,19.80
2022-11-29T08:22:43.016Z,21.00
2022-11-29T08:23:40.739Z,21.40
2022-11-29T08:24:40.474Z,21.10
2022-11-29T08:25:40.588Z,20.70
2022-11-29T08:26:40.437Z,23.50
2022-11-29T08:27:40.428Z,22.80
2022-11-29T08:28:41.015Z,22.60
2022-11-29T08:29:40.406Z,23.10
2022-11-29T08:30:40.587Z,21.60
2022-11-29T08:31:42.127Z,22.10
2022-11-29T08:32:41.062Z,22.60
2022-11-29T08:33:40.410Z,23.10
2022-11-29T08:34:40.366Z,23.60
2022-11-29T08:35:40.423Z,22.50
2022-11-29T08:36:41.078Z,21.80
2022-11-29T08:37:40.474Z,20.50
2022-11-29T08:38:41.023Z,20.20
2022-11-29T08:39:41.020Z,18.40
2022-11-29T08:40:40.426Z,20.20
2022-11-29T08:41:40.280Z,20.50
2022-11-29T08:42:40.264Z,19.40
2022-11-29T08:43:40.260Z,20.70
2022-11-29T08:44:40.242Z,20.50
2022-11-29T08:45:40.254Z,19.60
2022-11-29T08:46:40.232Z,20.10
2022-11-29T08:47:40.231Z,20.20
2022-11-29T08:48:40.200Z,19.60
2022-11-29T08:49:40.196Z,20.20
2022-11-29T08:50:40.189Z,19.20
2022-11-29T08:51:40.180Z,20.00
2022-11-29T08:52:40.200Z,19.70
2022-11-29T08:53:40.149Z,20.80
2022-11-29T08:54:40.133Z,20.50
2022-11-29T08:55:40.135Z,20.30
2022-11-29T08:57:40.995Z,20.60
2022-11-29T08:58:40.095Z,19.70
2022-11-29T08:59:40.082Z,19.80
2022-11-29T09:00:40.161Z,20.80
2022-11-29T09:01:40.083Z,20.60
2022-11-29T09:02:40.145Z,21.80
2022-11-29T09:03:40.053Z,21.00
2022-11-29T09:04:40.075Z,21.40
2022-11-29T09:05:40.020Z,22.10
2022-11-29T09:06:40.023Z,21.50
2022-11-29T09:07:40.066Z,21.50
2022-11-29T09:08:40.014Z,21.90
2022-11-29T09:09:39.981Z,22.10
2022-11-29T09:10:40.044Z,23.00
2022-11-29T09:11:40.046Z,23.20
2022-11-29T09:12:39.949Z,21.90
2022-11-29T09:13:40.577Z,21.70
2022-11-29T09:14:39.919Z,22.70
2022-11-29T09:15:39.932Z,24.00
2022-11-29T09:16:39.934Z,24.50
2022-11-29T09:17:43.508Z,23.20
2022-11-29T09:18:39.875Z,23.70
2022-11-29T09:19:39.891Z,23.90
2022-11-29T09:20:39.930Z,24.10
2022-11-29T09:21:39.863Z,27.00
2022-11-29T09:22:42.682Z,24.90
2022-11-29T09:23:39.823Z,25.40
2022-11-29T09:24:39.918Z,27.10
2022-11-29T09:25:39.915Z,25.70
2022-11-29T09:26:39.914Z,26.40
2022-11-29T09:27:39.800Z,26.70
2022-11-29T09:28:39.774Z,25.50
2022-11-29T09:29:39.757Z,28.20
2022-11-29T09:30:40.519Z,29.10
2022-11-29T09:31:39.806Z,26.70
2022-11-29T09:32:39.723Z,26.00
2022-11-29T09:33:39.716Z,28.00
2022-11-29T09:34:39.702Z,26.00
2022-11-29T09:35:39.694Z,28.20
2022-11-29T09:36:39.792Z,29.80
2022-11-29T09:37:39.671Z,25.50
2022-11-29T09:38:39.660Z,28.50
2022-11-29T09:39:39.650Z,29.90
2022-11-29T09:40:39.666Z,28.30
2022-11-29T09:41:42.988Z,27.50
2022-11-29T09:42:40.615Z,28.70
2022-11-29T09:43:39.608Z,27.60
2022-11-29T09:44:39.593Z,26.60
2022-11-29T09:45:39.645Z,26.00
2022-11-29T09:46:39.598Z,24.30
2022-11-29T09:47:39.567Z,27.30
2022-11-29T09:48:39.548Z,26.50
2022-11-29T09:49:39.545Z,25.70
2022-11-29T09:50:39.531Z,25.70
2022-11-29T09:51:44.026Z,26.70
2022-11-29T09:52:39.547Z,27.30
2022-11-29T09:53:39.517Z,27.70
2022-11-29T09:54:39.502Z,26.60
2022-11-29T09:55:39.475Z,26.20
2022-11-29T09:56:39.511Z,25.80
2022-11-29T09:57:39.500Z,24.60
2022-11-29T09:58:39.449Z,25.80
2022-11-29T09:59:39.438Z,27.90
2022-11-29T10:00:39.442Z,25.70
2022-11-29T10:01:39.444Z,27.40
2022-11-29T10:02:39.603Z,26.70
2022-11-29T10:03:39.400Z,25.90
2022-11-29T10:04:39.390Z,27.60
2022-11-29T10:05:39.412Z,27.40
2022-11-29T10:06:39.363Z,27.10
2022-11-29T10:07:39.388Z,24.70
2022-11-29T10:08:39.335Z,25.10
2022-11-29T10:09:39.332Z,24.70
2022-11-29T10:10:39.339Z,25.20
2022-11-29T10:11:39.301Z,26.20
2022-11-29T10:12:39.311Z,23.90
2022-11-29T10:13:39.285Z,24.30
2022-11-29T10:14:39.291Z,24.50
2022-11-29T10:15:39.325Z,25.10
2022-11-29T10:16:39.357Z,24.30
2022-11-29T10:17:51.700Z,25.20
2022-11-29T10:18:39.260Z,26.20
2022-11-29T10:19:39.234Z,24.60
2022-11-29T10:20:42.494Z,23.80
2022-11-29T10:21:40.193Z,24.30
2022-11-29T10:22:39.178Z,26.10
2022-11-29T10:23:39.191Z,25.40
2022-11-29T10:24:39.157Z,24.80
2022-11-29T10:25:39.161Z,24.30
2022-11-29T10:26:39.150Z,25.30
2022-11-29T10:27:54.107Z,24.90
2022-11-29T10:28:55.213Z,26.20
2022-11-29T10:29:54.138Z,26.60
2022-11-29T10:30:39.140Z,25.60
2022-11-29T10:31:39.081Z,26.20
2022-11-29T10:32:39.068Z,26.40
2022-11-29T10:33:39.084Z,26.90
2022-11-29T10:34:39.055Z,26.50
2022-11-29T10:35:39.041Z,26.30
2022-11-29T10:36:39.023Z,24.60
2022-11-29T10:37:39.017Z,25.10
2022-11-29T10:38:39.012Z,26.60
2022-11-29T10:39:39.003Z,25.20
2022-11-29T10:40:38.980Z,24.80
2022-11-29T10:41:38.978Z,26.00
2022-11-29T10:42:38.960Z,25.10
2022-11-29T10:43:38.987Z,26.00
2022-11-29T10:44:38.949Z,24.60
2022-11-29T10:45:39.133Z,25.50
2022-11-29T10:46:38.915Z,24.20
2022-11-29T10:47:38.908Z,25.60
2022-11-29T10:48:38.926Z,24.60
2022-11-29T10:49:38.900Z,24.20
2022-11-29T10:50:38.899Z,25.20
2022-11-29T10:51:38.876Z,24.80
2022-11-29T10:52:38.849Z,24.90
2022-11-29T10:53:38.858Z,24.50
2022-11-29T10:54:38.843Z,25.60
2022-11-29T10:55:39.593Z,25.50
2022-11-29T10:56:38.837Z,24.80
2022-11-29T10:57:38.921Z,24.00
2022-11-29T10:58:38.822Z,24.00
2022-11-29T10:59:39.608Z,23.10
2022-11-29T11:00:38.793Z,22.00
2022-11-29T11:01:38.848Z,22.10
2022-11-29T11:02:38.758Z,22.00
2022-11-29T11:03:38.738Z,22.50
2022-11-29T11:04:38.744Z,21.20
2022-11-29T11:05:39.625Z,23.60
2022-11-29T11:06:38.704Z,22.70
2022-11-29T11:07:39.597Z,21.60
2022-11-29T11:08:38.675Z,21.20
2022-11-29T11:09:38.693Z,21.10
2022-11-29T11:10:38.658Z,20.80
2022-11-29T11:11:38.682Z,21.90
2022-11-29T11:12:38.643Z,22.00
2022-11-29T11:13:38.663Z,20.20
2022-11-29T11:14:38.640Z,21.80
2022-11-29T11:15:38.682Z,20.20
2022-11-29T11:16:38.659Z,20.90
2022-11-29T11:17:38.725Z,21.40
2022-11-29T11:18:38.596Z,20.70
2022-11-29T11:19:38.574Z,20.20
2022-11-29T11:20:38.673Z,20.30
2022-11-29T11:21:38.542Z,21.40
2022-11-29T11:22:38.525Z,20.70
2022-11-29T11:23:42.566Z,20.10
2022-11-29T11:24:38.560Z,18.20
2022-11-29T11:25:38.496Z,19.30
2022-11-29T11:26:38.486Z,20.10
2022-11-29T11:27:41.095Z,21.90
2022-11-29T11:28:38.480Z,22.50
2022-11-29T11:29:38.450Z,21.00
2022-11-29T11:30:38.589Z,21.50
2022-11-29T11:31:38.482Z,20.80
2022-11-29T11:32:38.445Z,23.40
2022-11-29T11:33:38.481Z,21.90
2022-11-29T11:34:38.425Z,24.10
2022-11-29T11:35:38.385Z,21.70
2022-11-29T11:36:38.372Z,22.60
2022-11-29T11:37:39.067Z,22.90
2022-11-29T11:38:38.673Z,21.70
2022-11-29T11:39:38.519Z,24.50
2022-11-29T11:40:38.363Z,24.30
2022-11-29T11:41:40.628Z,23.70
2022-11-29T11:42:39.473Z,25.20
2022-11-29T11:43:38.383Z,24.30
2022-11-29T11:44:53.793Z,26.60
2022-11-29T11:45:39.421Z,26.10
2022-11-29T11:46:38.298Z,25.10
2022-11-29T11:47:38.278Z,24.10
2022-11-29T11:48:40.057Z,21.30
2022-11-29T11:49:39.226Z,21.40
2022-11-29T11:50:38.237Z,22.20
2022-11-29T11:51:38.292Z,22.20
2022-11-29T11:52:40.693Z,23.00
2022-11-29T11:53:38.211Z,21.70
2022-11-29T11:54:38.194Z,21.70
2022-11-29T11:55:38.168Z,20.60
2022-11-29T11:56:38.160Z,21.10
2022-11-29T11:57:38.244Z,19.30
2022-11-29T11:58:38.137Z,19.80
2022-11-29T11:59:38.141Z,19.70
2022-11-29T12:01:02.388Z,18.70
2022-11-29T12:01:39.204Z,19.40
2022-11-29T12:02:38.172Z,20.10
2022-11-29T12:03:38.184Z,20.00
2022-11-29T12:04:38.087Z,18.20
2022-11-29T12:05:39.220Z,18.90
2022-11-29T12:06:38.076Z,20.00
2022-11-29T12:08:06.933Z,18.40
2022-11-29T12:08:39.073Z,19.00
2022-11-29T12:09:38.038Z,19.60
2022-11-29T12:10:52.634Z,20.00
2022-11-29T12:11:39.554Z,19.60
2022-11-29T12:12:38.558Z,19.10
2022-11-29T12:13:38.558Z,20.50
2022-11-29T12:14:37.958Z,19.80
2022-11-29T12:15:37.988Z,19.00
2022-11-29T12:16:37.934Z,18.70
2022-11-29T22:44:46.035Z,16.80
2022-11-29T22:45:45.745Z,18.80
2022-11-29T22:46:45.809Z,23.40
2022-11-29T22:47:45.740Z,23.80
2022-11-29T22:48:45.713Z,24.00
2022-11-29T22:49:45.701Z,25.30
2022-11-29T22:50:45.691Z,25.00
2022-11-29T22:51:46.277Z,25.00
2022-11-29T22:52:45.670Z,24.40
2022-11-29T22:53:45.671Z,23.90
2022-11-29T22:54:46.024Z,23.90
2022-11-29T22:55:45.639Z,23.90
2022-11-29T22:56:45.717Z,23.80
2022-11-29T22:57:45.610Z,22.90
2022-11-29T22:58:45.629Z,22.70
2022-11-29T22:59:45.590Z,22.60
2022-11-29T23:00:45.642Z,23.80
2022-11-29T23:01:45.618Z,23.00
2022-11-29T23:02:45.579Z,23.20
2022-11-29T23:03:45.547Z,24.10
2022-11-29T23:04:45.907Z,23.20
2022-11-29T23:05:45.524Z,22.40
2022-11-29T23:06:45.529Z,22.70
2022-11-29T23:07:45.569Z,23.10
2022-11-29T23:08:45.491Z,22.30
2022-11-29T23:09:45.478Z,22.50
2022-11-29T23:10:45.471Z,22.40
2022-11-29T23:11:45.457Z,22.40
2022-11-29T23:12:45.466Z,22.30
2022-11-29T23:13:45.454Z,21.70
2022-11-29T23:14:45.810Z,22.60
2022-11-29T23:15:45.413Z,22.00
2022-11-29T23:16:45.469Z,22.50
2022-11-29T23:17:45.407Z,22.60
2022-11-29T23:18:45.424Z,21.60
2022-11-29T23:19:45.374Z,21.50
2022-11-29T23:20:45.362Z,22.30